Terminal Aerodrome Forecast
Issued by NWS

Home | Current Version | Previous Version | Text Only | Print | Product List | Glossary On
Versions: 1 2 3 4 5 6 7 8 9 10 11 12 13 14 15 16 17 18 19 20 21 22 23 24 25 26 27 28 29 30 31 32 33 34 35 36 37 38 39 40 41 42 43 44 45 46 47 48 49 50
000
FTUS46 KLOX 202337
TAFSBA
TAF
KSBA 202337Z 2100/2124 16007KT P6SM OVC022
     FM210300 29006KT P6SM OVC020
     FM210600 VRB03KT P6SM OVC014
     FM211000 VRB03KT 5SM BR OVC007
     FM211600 15006KT P6SM OVC012
     FM212100 22009KT P6SM BKN025=

USA.gov is the U.S. government's official web portal to all federal, state and local government web resources and services.